Time;durP1;ratioP1;P1;durP2;ratioP2;P2;SDS_P1;SDS_P2;PMS_P1;PMS_P2;Temp;Humidity;BMP_temperature;BMP_pressure;BME280_temperature;BME280_humidity;BME280_pressure;Samples;Min_cycle;Max_cycle;Signal;HPM_P1;HPM_P2
2023/08/05 00:01:01;;;;;;;1999.90;999.90;;;17.20;99.90;;;;;;4990767;28;20173;-69
2023/08/05 00:03:26;;;;;;;1999.90;999.90;;;17.20;99.90;;;;;;4991413;28;20570;-69
2023/08/05 00:05:52;;;;;;;1999.90;999.90;;;17.20;99.90;;;;;;4991357;28;20293;-70
2023/08/05 00:08:17;;;;;;;1999.90;999.90;;;17.20;99.90;;;;;;4990393;28;20198;-70
2023/08/05 00:10:44;;;;;;;1999.90;999.90;;;17.10;99.90;;;;;;4990704;28;20582;-70
2023/08/05 00:13:10;;;;;;;1999.90;999.90;;;17.00;99.90;;;;;;4990447;28;20201;-69
2023/08/05 00:15:36;;;;;;;1999.90;999.90;;;17.00;99.90;;;;;;4989856;28;20434;-70
2023/08/05 00:18:02;;;;;;;1999.90;999.90;;;16.90;99.90;;;;;;4989989;28;20490;-69
2023/08/05 00:20:27;;;;;;;1999.90;999.90;;;16.90;99.90;;;;;;4989323;28;20189;-69
2023/08/05 00:22:53;;;;;;;1999.90;999.90;;;16.90;99.90;;;;;;4989987;28;20701;-69
2023/08/05 00:25:19;;;;;;;1999.90;999.90;;;16.90;99.90;;;;;;4989817;28;20205;-70
2023/08/05 00:27:44;;;;;;;1999.90;999.90;;;16.90;99.90;;;;;;4990617;28;20171;-70
2023/08/05 00:30:11;;;;;;;1999.90;999.90;;;16.80;99.90;;;;;;4990682;28;20645;-70
2023/08/05 00:32:37;;;;;;;1999.90;999.90;;;16.80;99.90;;;;;;4990236;28;20205;-70
2023/08/05 00:35:06;;;;;;;1999.90;999.90;;;16.80;99.90;;;;;;4990258;28;20410;-69
2023/08/05 00:37:32;;;;;;;1999.90;999.90;;;16.80;99.90;;;;;;4990581;28;20169;-69
2023/08/05 00:39:59;;;;;;;1999.90;999.90;;;16.70;99.90;;;;;;4989878;28;20407;-70
2023/08/05 00:42:27;;;;;;;1999.90;999.90;;;16.70;99.90;;;;;;4991522;28;20783;-69
2023/08/05 00:44:53;;;;;;;1999.90;999.90;;;16.70;99.90;;;;;;4989712;28;20416;-69
2023/08/05 00:47:19;;;;;;;1999.90;999.90;;;16.50;99.90;;;;;;4990687;28;20422;-70
2023/08/05 00:49:47;;;;;;;1999.90;999.90;;;16.50;99.90;;;;;;4991391;28;20978;-69
2023/08/05 00:52:15;;;;;;;1999.90;999.90;;;16.40;99.90;;;;;;4989585;28;20452;-70
2023/08/05 00:54:41;;;;;;;1999.90;999.90;;;16.40;99.90;;;;;;4990500;28;20847;-70
2023/08/05 00:57:09;;;;;;;1999.90;999.90;;;16.40;99.90;;;;;;4990037;28;20436;-70
2023/08/05 00:59:34;;;;;;;1999.90;999.90;;;16.40;99.90;;;;;;4991703;28;20466;-70
2023/08/05 01:02:00;;;;;;;1999.90;999.90;;;16.30;99.90;;;;;;4991878;28;20409;-70
2023/08/05 01:04:25;;;;;;;1999.90;999.90;;;16.40;99.90;;;;;;4990553;28;20166;-70
2023/08/05 01:06:51;;;;;;;1999.90;999.90;;;16.40;99.90;;;;;;4990802;28;20195;-69
2023/08/05 01:09:17;;;;;;;1999.90;999.90;;;16.40;99.90;;;;;;4990552;28;20173;-70
2023/08/05 01:11:43;;;;;;;1999.90;999.90;;;16.30;99.90;;;;;;4989207;28;20408;-70
2023/08/05 01:14:08;;;;;;;1999.90;999.90;;;16.30;99.90;;;;;;4988575;28;20557;-69
2023/08/05 01:16:34;;;;;;;1999.90;999.90;;;16.30;99.90;;;;;;4990147;28;20244;-70
2023/08/05 01:19:03;;;;;;;1999.90;999.90;;;16.30;99.90;;;;;;4989709;28;20551;-70
2023/08/05 01:21:33;;;;;;;1999.90;999.90;;;16.30;99.90;;;;;;4990294;28;20176;-70
2023/08/05 01:24:24;;;;;;;1999.90;999.90;;;16.30;99.90;;;;;;4990453;28;20411;-70
2023/08/05 01:26:51;;;;;;;1999.90;999.90;;;16.30;99.90;;;;;;4989711;28;20539;-70
2023/08/05 01:29:17;;;;;;;1999.90;999.90;;;16.30;99.90;;;;;;4989279;28;20425;-69
2023/08/05 01:31:45;;;;;;;1999.90;999.90;;;16.30;99.90;;;;;;4990250;28;20415;-70
2023/08/05 01:34:11;;;;;;;1999.90;999.90;;;16.40;99.90;;;;;;4989373;28;20215;-70
2023/08/05 01:36:37;;;;;;;1999.90;999.90;;;16.30;99.90;;;;;;4992636;28;20850;-69
2023/08/05 01:39:03;;;;;;;1999.90;999.90;;;16.30;99.90;;;;;;4992450;28;20462;-71
2023/08/05 01:41:29;;;;;;;1999.90;999.90;;;16.30;99.90;;;;;;4992434;28;20170;-69
2023/08/05 01:43:54;;;;;;;1999.90;999.90;;;16.20;99.90;;;;;;4994158;28;20628;-70
2023/08/05 01:46:20;;;;;;;1999.90;999.90;;;16.20;99.90;;;;;;4993186;28;20425;-69
2023/08/05 01:48:45;;;;;;;1999.90;999.90;;;16.20;99.90;;;;;;4992404;28;20181;-69
2023/08/05 01:51:11;;;;;;;1999.90;999.90;;;16.10;99.90;;;;;;4992024;28;20177;-70
2023/08/05 01:53:37;;;;;;;1999.90;999.90;;;16.00;99.90;;;;;;4993004;28;20208;-70
2023/08/05 01:56:02;;;;;;;1999.90;999.90;;;16.00;99.90;;;;;;4992387;28;20186;-69
2023/08/05 01:58:28;;;;;;;1999.90;999.90;;;16.00;99.90;;;;;;4992541;28;20202;-70
2023/08/05 02:00:53;;;;;;;1999.90;999.90;;;16.00;99.90;;;;;;4992789;28;20626;-69
2023/08/05 02:03:20;;;;;;;1999.90;999.90;;;15.90;99.90;;;;;;4992424;28;20212;-70
2023/08/05 02:05:46;;;;;;;1999.90;999.90;;;15.90;99.90;;;;;;4992356;28;20194;-70
2023/08/05 02:08:12;;;;;;;1999.90;999.90;;;15.90;99.90;;;;;;4990785;28;20929;-71
2023/08/05 02:10:37;;;;;;;1999.90;999.90;;;15.80;99.90;;;;;;4992040;28;20409;-70
2023/08/05 02:13:04;;;;;;;1999.90;999.90;;;15.70;99.90;;;;;;4991862;28;20202;-69
2023/08/05 02:15:29;;;;;;;1999.90;999.90;;;15.60;99.90;;;;;;4990985;28;20201;-69
2023/08/05 02:17:55;;;;;;;1999.90;999.90;;;15.60;99.90;;;;;;4991953;28;20932;-69
2023/08/05 02:20:21;;;;;;;1999.90;999.90;;;15.60;99.90;;;;;;4991935;28;20263;-69
2023/08/05 02:22:46;;;;;;;1999.90;999.90;;;15.60;99.90;;;;;;4992011;28;20208;-70
2023/08/05 02:25:12;;;;;;;1999.90;999.90;;;15.50;99.90;;;;;;4992040;28;20570;-69
2023/08/05 02:27:38;;;;;;;1999.90;999.90;;;15.50;99.90;;;;;;4992268;28;20179;-69
2023/08/05 02:30:04;;;;;;;1999.90;999.90;;;15.50;99.90;;;;;;4992161;28;20179;-69
2023/08/05 02:32:29;;;;;;;1999.90;999.90;;;15.50;99.90;;;;;;4992051;28;20231;-69
2023/08/05 02:34:55;;;;;;;1999.90;999.90;;;15.50;99.90;;;;;;4992081;28;20846;-70
2023/08/05 02:37:21;;;;;;;1999.90;999.90;;;15.40;99.90;;;;;;4991087;28;20181;-69
2023/08/05 02:39:46;;;;;;;1999.90;999.90;;;15.40;99.90;;;;;;4992434;28;20169;-69
2023/08/05 02:42:12;;;;;;;1999.90;999.90;;;15.40;99.90;;;;;;4992372;28;20209;-70
2023/08/05 02:44:37;;;;;;;1999.90;999.90;;;15.40;99.90;;;;;;4991423;28;20204;-69
2023/08/05 02:47:03;;;;;;;1999.90;999.90;;;15.50;99.90;;;;;;4991626;28;20199;-69
2023/08/05 02:49:29;;;;;;;1999.90;999.90;;;15.50;99.90;;;;;;4991879;28;20224;-69
2023/08/05 02:51:54;;;;;;;1999.90;999.90;;;15.50;99.90;;;;;;4991450;28;20186;-69
2023/08/05 02:54:20;;;;;;;1999.90;999.90;;;15.40;99.90;;;;;;4991496;28;20231;-69
2023/08/05 02:56:45;;;;;;;1999.90;999.90;;;15.40;99.90;;;;;;4991921;28;20213;-69
2023/08/05 02:59:12;;;;;;;1999.90;999.90;;;15.40;99.90;;;;;;4991926;28;20228;-70
2023/08/05 03:01:37;;;;;;;1999.90;999.90;;;15.30;99.90;;;;;;4991634;28;20194;-70
2023/08/05 03:04:03;;;;;;;1999.90;999.90;;;15.30;99.90;;;;;;4991569;28;20446;-69
2023/08/05 03:06:29;;;;;;;1999.90;999.90;;;15.20;99.90;;;;;;4991117;28;20196;-70
2023/08/05 03:08:54;;;;;;;1999.90;999.90;;;15.20;99.90;;;;;;4991718;28;20184;-70
2023/08/05 03:11:21;;;;;;;1999.90;999.90;;;15.10;99.90;;;;;;4991735;28;20635;-68
2023/08/05 03:13:47;;;;;;;1999.90;999.90;;;15.00;99.90;;;;;;4991848;28;20203;-69
2023/08/05 03:16:14;;;;;;;1999.90;999.90;;;14.90;99.90;;;;;;4991962;28;20437;-68
2023/08/05 03:18:40;;;;;;;1999.90;999.90;;;14.90;99.90;;;;;;4991720;28;20404;-69
2023/08/05 03:21:05;;;;;;;1999.90;999.90;;;15.00;99.90;;;;;;4990940;28;20401;-69
2023/08/05 03:23:31;;;;;;;1999.90;999.90;;;14.90;99.90;;;;;;4991175;28;20788;-70
2023/08/05 03:25:57;;;;;;;1999.90;999.90;;;15.00;99.90;;;;;;5022028;23;20235;-71
2023/08/05 03:28:22;;;;;;;1999.90;999.90;;;15.00;99.90;;;;;;5072337;28;20266;-71
2023/08/05 03:30:48;;;;;;;1999.90;999.90;;;15.00;99.90;;;;;;5072130;28;20184;-73
2023/08/05 03:33:13;;;;;;;1999.90;999.90;;;14.90;99.90;;;;;;5072174;28;20201;-71
2023/08/05 03:35:45;;;;;;;1999.90;999.90;;;15.00;99.90;;;;;;5072559;28;20177;-71
2023/08/05 03:38:11;;;;;;;1999.90;999.90;;;15.00;99.90;;;;;;5072450;28;20164;-71
2023/08/05 03:40:36;;;;;;;1999.90;999.90;;;15.10;99.90;;;;;;5072353;28;20405;-72
2023/08/05 03:43:02;;;;;;;1999.90;999.90;;;15.10;99.90;;;;;;5072297;28;20408;-71
2023/08/05 03:45:28;;;;;;;1999.90;999.90;;;15.10;99.90;;;;;;5072183;28;20193;-72
2023/08/05 03:47:55;;;;;;;1999.90;999.90;;;15.30;99.90;;;;;;5072270;28;20445;-71
2023/08/05 03:50:21;;;;;;;1999.90;999.90;;;15.20;99.90;;;;;;5072321;28;20202;-72
2023/08/05 03:52:48;;;;;;;1999.90;999.90;;;15.00;99.90;;;;;;5071905;28;20845;-72
2023/08/05 03:55:14;;;;;;;1999.90;999.90;;;15.10;99.90;;;;;;5072139;28;20526;-71
2023/08/05 03:57:40;;;;;;;1999.90;999.90;;;15.00;99.90;;;;;;5072185;28;20432;-71
2023/08/05 04:00:12;;;;;;;1999.90;999.90;;;14.90;99.90;;;;;;5071762;28;21065;-71
2023/08/05 04:02:37;;;;;;;1999.90;999.90;;;14.90;99.90;;;;;;5071851;28;20418;-71
2023/08/05 04:05:04;;;;;;;1999.90;999.90;;;14.80;99.90;;;;;;5072141;28;20394;-72
2023/08/05 04:07:30;;;;;;;1999.90;999.90;;;14.80;99.90;;;;;;5072000;28;20787;-71
2023/08/05 04:09:56;;;;;;;1999.90;999.90;;;14.80;99.90;;;;;;5071993;28;20502;-71
2023/08/05 04:12:22;;;;;;;1999.90;999.90;;;14.90;99.90;;;;;;5071717;28;20447;-71
2023/08/05 04:14:50;;;;;;;1999.90;999.90;;;15.00;99.90;;;;;;5072002;28;20585;-72
2023/08/05 04:17:16;;;;;;;1999.90;999.90;;;15.00;99.90;;;;;;5072051;28;20271;-71
2023/08/05 04:19:42;;;;;;;1999.90;999.90;;;15.00;99.90;;;;;;5071927;28;20824;-72
2023/08/05 04:22:08;;;;;;;1999.90;999.90;;;15.00;99.90;;;;;;5071602;28;20170;-71
2023/08/05 04:24:35;;;;;;;1999.90;999.90;;;15.00;99.90;;;;;;5071817;28;20803;-71
2023/08/05 04:27:01;;;;;;;1999.90;999.90;;;15.10;99.90;;;;;;5071725;28;20196;-71
2023/08/05 04:29:27;;;;;;;1999.90;999.90;;;15.00;99.90;;;;;;5071996;28;20504;-71
2023/08/05 04:31:53;;;;;;;1999.90;999.90;;;15.00;99.90;;;;;;5071670;28;20390;-71
2023/08/05 04:34:19;;;;;;;1999.90;999.90;;;15.00;99.90;;;;;;5071676;28;20660;-71
2023/08/05 04:36:48;;;;;;;1999.90;999.90;;;15.00;99.90;;;;;;5071708;28;20434;-71
2023/08/05 04:39:14;;;;;;;1999.90;999.90;;;15.00;99.90;;;;;;5071952;28;20405;-71
2023/08/05 04:41:40;;;;;;;1999.90;999.90;;;15.10;99.90;;;;;;5071452;28;20781;-71
2023/08/05 04:44:05;;;;;;;1999.90;999.90;;;15.10;99.90;;;;;;5071870;28;20172;-71
2023/08/05 04:46:31;;;;;;;1999.90;999.90;;;15.10;99.90;;;;;;5071834;28;20189;-71
2023/08/05 04:48:56;;;;;;;1999.90;999.90;;;15.10;99.90;;;;;;5071813;28;20200;-71
2023/08/05 04:51:22;;;;;;;1999.90;999.90;;;15.20;99.90;;;;;;5071457;28;20179;-71
2023/08/05 04:53:47;;;;;;;1999.90;999.90;;;15.20;99.90;;;;;;5071702;28;20577;-71
2023/08/05 04:56:13;;;;;;;1999.90;999.90;;;15.30;99.90;;;;;;5071651;28;20196;-71
2023/08/05 04:58:39;;;;;;;1999.90;999.90;;;15.30;99.90;;;;;;5071600;28;20168;-72
2023/08/05 05:01:04;;;;;;;1999.90;999.90;;;15.30;99.90;;;;;;5071182;28;20163;-72
2023/08/05 05:03:30;;;;;;;1999.90;999.90;;;15.30;99.90;;;;;;5071719;28;20170;-72
2023/08/05 05:05:56;;;;;;;1999.90;999.90;;;15.30;99.90;;;;;;5071527;28;20199;-72
2023/08/05 05:08:22;;;;;;;1999.90;999.90;;;15.30;99.90;;;;;;5071687;28;20627;-72
2023/08/05 05:10:48;;;;;;;1999.90;999.90;;;15.40;99.90;;;;;;5072166;28;20196;-72
2023/08/05 05:13:13;;;;;;;1999.90;999.90;;;15.50;99.90;;;;;;5074987;28;20972;-72
2023/08/05 05:15:39;;;;;;;1999.90;999.90;;;15.50;99.90;;;;;;5075295;28;20198;-72
2023/08/05 05:18:05;;;;;;;1999.90;999.90;;;15.50;99.90;;;;;;5075204;28;20440;-71
2023/08/05 05:20:30;;;;;;;1999.90;999.90;;;15.50;99.90;;;;;;5075142;28;20168;-71
2023/08/05 05:22:56;;;;;;;1999.90;999.90;;;15.60;99.90;;;;;;5074829;28;20194;-71
2023/08/05 05:25:24;;;;;;;1999.90;999.90;;;15.60;99.90;;;;;;5075093;28;20545;-71
2023/08/05 05:27:50;;;;;;;1999.90;999.90;;;15.60;99.90;;;;;;5074950;28;20228;-71
2023/08/05 05:30:15;;;;;;;1999.90;999.90;;;15.50;99.90;;;;;;5075052;28;20444;-72
2023/08/05 05:32:41;;;;;;;1999.90;999.90;;;15.60;99.90;;;;;;5074611;28;20200;-71
2023/08/05 05:35:07;;;;;;;1999.90;999.90;;;15.60;99.90;;;;;;5074872;28;20166;-71
2023/08/05 05:37:32;;;;;;;1999.90;999.90;;;15.60;99.90;;;;;;5074866;28;20872;-71
2023/08/05 05:39:58;;;;;;;1999.90;999.90;;;15.60;99.90;;;;;;5074907;28;20910;-72
2023/08/05 05:42:24;;;;;;;1999.90;999.90;;;15.60;99.90;;;;;;5074490;28;20253;-71
2023/08/05 05:44:52;;;;;;;1999.90;999.90;;;15.70;99.90;;;;;;5074774;28;20166;-71
2023/08/05 05:47:19;;;;;;;1999.90;999.90;;;15.80;99.90;;;;;;5074646;28;20878;-72
2023/08/05 05:49:44;;;;;;;1999.90;999.90;;;15.80;99.90;;;;;;5074605;28;20477;-71
2023/08/05 05:52:13;;;;;;;1999.90;999.90;;;15.80;99.90;;;;;;5074288;28;20497;-72
2023/08/05 05:54:38;;;;;;;1999.90;999.90;;;15.90;99.90;;;;;;5074495;28;20242;-72
2023/08/05 05:57:04;;;;;;;1999.90;999.90;;;15.90;99.90;;;;;;5074514;28;20516;-71
2023/08/05 05:59:30;;;;;;;1999.90;999.90;;;16.00;99.90;;;;;;5074488;28;20163;-72
2023/08/05 06:01:56;;;;;;;1999.90;999.90;;;16.10;99.90;;;;;;5074229;28;20171;-72
2023/08/05 06:04:24;;;;;;;1999.90;999.90;;;16.20;99.90;;;;;;5074303;28;20529;-71
2023/08/05 06:06:50;;;;;;;1999.90;999.90;;;16.20;99.90;;;;;;5074421;28;20282;-71
2023/08/05 06:09:15;;;;;;;1999.90;999.90;;;16.20;99.90;;;;;;5074180;28;20497;-71
2023/08/05 06:11:41;;;;;;;1999.90;999.90;;;16.30;99.90;;;;;;5073772;28;20419;-71
2023/08/05 06:14:06;;;;;;;1999.90;999.90;;;16.40;99.90;;;;;;5074141;28;20199;-71
2023/08/05 06:16:32;;;;;;;1999.90;999.90;;;16.40;99.90;;;;;;5074014;28;20549;-71
2023/08/05 06:18:57;;;;;;;1999.90;999.90;;;16.40;99.90;;;;;;5074059;28;20253;-71
2023/08/05 06:21:23;;;;;;;1999.90;999.90;;;16.40;99.90;;;;;;5073402;28;20634;-71
2023/08/05 06:23:49;;;;;;;1999.90;999.90;;;16.40;99.90;;;;;;5073805;28;20249;-72
2023/08/05 06:26:14;;;;;;;1999.90;999.90;;;16.50;99.90;;;;;;5073746;28;20659;-71
2023/08/05 06:28:40;;;;;;;1999.90;999.90;;;16.50;99.90;;;;;;5073934;28;20191;-71
2023/08/05 06:31:05;;;;;;;1999.90;999.90;;;16.50;99.90;;;;;;5073601;28;20175;-71
2023/08/05 06:33:31;;;;;;;1999.90;999.90;;;16.60;99.90;;;;;;5073712;28;20268;-72
2023/08/05 06:35:57;;;;;;;1999.90;999.90;;;16.70;99.90;;;;;;5073664;28;20553;-70
2023/08/05 06:38:24;;;;;;;1999.90;999.90;;;16.70;99.90;;;;;;5073727;28;20170;-70
2023/08/05 06:40:51;;;;;;;1999.90;999.90;;;16.80;99.90;;;;;;5073448;28;20403;-70
2023/08/05 06:43:17;;;;;;;1999.90;999.90;;;16.70;99.90;;;;;;5073423;28;20886;-72
2023/08/05 06:45:43;;;;;;;1999.90;999.90;;;16.80;99.90;;;;;;5073452;28;20524;-71
2023/08/05 06:48:08;;;;;;;1999.90;999.90;;;16.80;99.90;;;;;;5072620;28;20426;-71
2023/08/05 06:50:34;;;;;;;1999.90;999.90;;;16.80;99.90;;;;;;5073156;28;20177;-71
2023/08/05 06:53:00;;;;;;;1999.90;999.90;;;16.80;99.90;;;;;;5072620;28;20208;-71
2023/08/05 06:55:25;;;;;;;1999.90;999.90;;;17.30;99.90;;;;;;5073167;28;20417;-72
2023/08/05 06:57:51;;;;;;;1999.90;999.90;;;17.00;99.90;;;;;;5073193;28;20166;-71
2023/08/05 07:00:17;;;;;;;1999.90;999.90;;;17.20;99.90;;;;;;5073270;28;20164;-71
2023/08/05 07:02:43;;;;;;;1999.90;999.90;;;17.40;99.90;;;;;;5072912;28;20567;-71
2023/08/05 07:05:08;;;;;;;1999.90;999.90;;;17.50;99.90;;;;;;5073173;28;20410;-71
2023/08/05 07:07:34;;;;;;;1999.90;999.90;;;17.70;99.90;;;;;;5072773;28;20244;-71
2023/08/05 07:10:07;;;;;;;1999.90;999.90;;;17.90;99.90;;;;;;5072937;28;20409;-71
2023/08/05 07:12:34;;;;;;;1999.90;999.90;;;18.00;99.90;;;;;;5072620;28;20226;-71
2023/08/05 07:14:59;;;;;;;1999.90;999.90;;;18.30;99.90;;;;;;5072929;28;20412;-71
2023/08/05 07:17:25;;;;;;;1999.90;999.90;;;18.50;99.90;;;;;;5072898;28;20502;-71
2023/08/05 07:19:51;;;;;;;1999.90;999.90;;;18.60;99.90;;;;;;5072701;28;20181;-71
2023/08/05 07:22:17;;;;;;;1999.90;999.90;;;18.70;99.90;;;;;;5072176;28;20506;-71
2023/08/05 07:24:42;;;;;;;1999.90;999.90;;;18.80;99.90;;;;;;5072770;28;20402;-72
2023/08/05 07:27:08;;;;;;;1999.90;999.90;;;18.90;99.90;;;;;;5072505;28;20209;-72
2023/08/05 07:29:34;;;;;;;1999.90;999.90;;;19.10;99.90;;;;;;5072691;28;20647;-71
2023/08/05 07:31:59;;;;;;;1999.90;999.90;;;19.20;99.90;;;;;;5072541;28;20612;-72
2023/08/05 07:34:30;;;;;;;1999.90;999.90;;;19.30;99.90;;;;;;5072058;28;20212;-72
2023/08/05 07:36:56;;;;;;;1999.90;999.90;;;19.50;99.90;;;;;;5072077;28;20196;-71
2023/08/05 07:39:23;;;;;;;1999.90;999.90;;;19.70;99.90;;;;;;5072466;28;20919;-71
2023/08/05 07:41:49;;;;;;;1999.90;999.90;;;19.90;99.90;;;;;;5072244;28;20675;-72
2023/08/05 07:44:15;;;;;;;1999.90;999.90;;;19.90;99.90;;;;;;5072360;28;20407;-72
2023/08/05 07:46:41;;;;;;;1999.90;999.90;;;19.90;99.90;;;;;;5072578;28;20425;-73
2023/08/05 07:49:07;;;;;;;1999.90;999.90;;;20.00;99.90;;;;;;5070590;28;20517;-72
2023/08/05 07:51:33;;;;;;;1999.90;999.90;;;20.00;99.90;;;;;;5051684;28;20470;-73
2023/08/05 07:53:59;;;;;;;1999.90;999.90;;;20.00;99.90;;;;;;5071684;28;20460;-73
2023/08/05 07:56:25;;;;;;;1999.90;999.90;;;20.10;99.90;;;;;;5070106;28;20441;-73
2023/08/05 07:58:51;;;;;;;1999.90;999.90;;;20.20;99.90;;;;;;5071061;28;20791;-73
2023/08/05 08:01:19;;;;;;;1999.90;999.90;;;20.20;99.90;;;;;;5071016;28;20225;-72
2023/08/05 08:03:46;;;;;;;1999.90;999.90;;;20.40;99.90;;;;;;5071735;28;20409;-73
2023/08/05 08:06:15;;;;;;;1999.90;999.90;;;20.50;99.90;;;;;;5071017;28;20960;-73
2023/08/05 08:08:42;;;;;;;1999.90;999.90;;;20.50;99.90;;;;;;5071602;28;20777;-74
2023/08/05 08:11:09;;;;;;;1999.90;999.90;;;20.50;99.90;;;;;;5070965;28;20416;-73
2023/08/05 08:13:36;;;;;;;1999.90;999.90;;;20.60;99.90;;;;;;5063879;28;20526;-70
2023/08/05 08:16:01;;;;;;;1999.90;999.90;;;20.60;99.90;;;;;;5068376;28;20900;-70
2023/08/05 08:18:27;;;;;;;1999.90;999.90;;;20.60;99.90;;;;;;5069863;28;20459;-70
2023/08/05 08:20:53;;;;;;;1999.90;999.90;;;20.60;99.90;;;;;;5066765;28;20232;-69
2023/08/05 08:23:19;;;;;;;1999.90;999.90;;;20.50;99.90;;;;;;5066478;28;20711;-70
2023/08/05 08:25:45;;;;;;;1999.90;999.90;;;20.60;99.90;;;;;;5066255;28;20420;-69
2023/08/05 08:28:10;;;;;;;1999.90;999.90;;;20.70;99.90;;;;;;5067174;28;20926;-70
2023/08/05 08:30:36;;;;;;;1999.90;999.90;;;20.70;99.90;;;;;;5066644;28;20270;-70
2023/08/05 08:33:02;;;;;;;1999.90;999.90;;;20.70;99.90;;;;;;5066624;28;20203;-70
2023/08/05 08:35:27;;;;;;;1999.90;999.90;;;20.70;99.90;;;;;;5066660;28;20316;-70
2023/08/05 08:37:53;;;;;;;1999.90;999.90;;;20.70;99.90;;;;;;5066536;28;20171;-70
2023/08/05 08:40:19;;;;;;;1999.90;999.90;;;20.70;99.90;;;;;;5067385;28;20562;-70
2023/08/05 08:42:45;;;;;;;1999.90;999.90;;;20.70;99.90;;;;;;5066056;28;20179;-70
2023/08/05 08:45:15;;;;;;;1999.90;999.90;;;20.70;99.90;;;;;;5068098;28;20237;-70
2023/08/05 08:47:41;;;;;;;1999.90;999.90;;;20.90;99.90;;;;;;5071125;28;20434;-70
2023/08/05 08:50:07;;;;;;;1999.90;999.90;;;21.00;99.90;;;;;;5070495;28;20418;-70
2023/08/05 08:52:35;;;;;;;1999.90;999.90;;;20.90;99.90;;;;;;5070413;28;20507;-70
2023/08/05 08:55:03;;;;;;;1999.90;999.90;;;20.90;99.90;;;;;;5070749;28;20460;-69
2023/08/05 08:57:29;;;;;;;1999.90;999.90;;;20.70;99.90;;;;;;5070288;28;20861;-69
2023/08/05 08:59:55;;;;;;;1999.90;999.90;;;20.70;99.90;;;;;;5070150;28;20413;-70
2023/08/05 09:02:25;;;;;;;1999.90;999.90;;;20.70;99.90;;;;;;5070903;28;20497;-69
2023/08/05 09:04:54;;;;;;;1999.90;999.90;;;20.80;99.90;;;;;;5071025;28;20417;-70
2023/08/05 09:07:25;;;;;;;1999.90;999.90;;;20.90;99.90;;;;;;5070411;28;20432;-70
2023/08/05 09:09:51;;;;;;;1999.90;999.90;;;21.00;99.90;;;;;;5070461;28;20932;-70
2023/08/05 09:12:16;;;;;;;1999.90;999.90;;;21.20;99.90;;;;;;5070480;28;20474;-70
2023/08/05 09:14:42;;;;;;;1999.90;999.90;;;21.30;99.90;;;;;;5070706;28;20892;-70
2023/08/05 09:17:08;;;;;;;1999.90;999.90;;;21.50;99.90;;;;;;5069674;28;20193;-70
2023/08/05 09:19:33;;;;;;;1999.90;999.90;;;21.60;99.90;;;;;;5070332;28;20182;-70
2023/08/05 09:22:05;;;;;;;1999.90;999.90;;;21.60;99.90;;;;;;5069947;28;20182;-70
2023/08/05 09:24:30;;;;;;;1999.90;999.90;;;21.60;99.90;;;;;;5070232;28;20646;-70
2023/08/05 09:26:59;;;;;;;1999.90;999.90;;;21.70;99.90;;;;;;5071150;28;20462;-71
2023/08/05 09:29:26;;;;;;;1999.90;999.90;;;21.80;99.90;;;;;;5062487;28;20176;-71
2023/08/05 09:32:02;;;;;;;1999.90;999.90;;;22.00;99.90;;;;;;5079384;28;20422;-71
2023/08/05 09:34:38;;;;;;;1999.90;999.90;;;22.10;99.90;;;;;;5079991;28;20466;-71
2023/08/05 09:37:05;;;;;;;1999.90;999.90;;;22.20;99.90;;;;;;5077788;28;20782;-71
2023/08/05 09:39:44;;;;;;;1999.90;999.90;;;22.20;99.90;;;;;;5075722;28;20402;-71
2023/08/05 09:42:24;;;;;;;1999.90;999.90;;;22.10;99.90;;;;;;5074431;28;20930;-71
2023/08/05 09:44:54;;;;;;;1999.90;999.90;;;22.20;99.90;;;;;;5076329;28;20409;-71
2023/08/05 09:47:25;;;;;;;1999.90;999.90;;;22.40;99.90;;;;;;5077412;28;20430;-71
2023/08/05 09:49:52;;;;;;;1999.90;999.90;;;22.70;99.90;;;;;;5059632;28;20419;-71
2023/08/05 09:52:20;;;;;;;1999.90;999.90;;;22.90;99.90;;;;;;5076185;28;20465;-71
2023/08/05 09:55:16;;;;;;;1999.90;999.90;;;23.00;99.90;;;;;;5077638;28;20430;-71
2023/08/05 09:57:43;;;;;;;1999.90;999.90;;;23.00;99.90;;;;;;5066352;28;20437;-70
2023/08/05 10:00:14;;;;;;;1999.90;999.90;;;23.10;99.90;;;;;;5069088;28;20418;-70
2023/08/05 10:02:41;;;;;;;1999.90;999.90;;;23.10;99.90;;;;;;5068844;28;20425;-70
2023/08/05 10:05:09;;;;;;;1999.90;999.90;;;23.20;99.90;;;;;;5070426;28;20500;-70
2023/08/05 10:07:45;;;;;;;1999.90;999.90;;;23.10;99.90;;;;;;5068706;28;21010;-68
2023/08/05 10:10:15;;;;;;;1999.90;999.90;;;23.10;99.90;;;;;;5068276;28;20425;-68
2023/08/05 10:12:50;;;;;;;1999.90;999.90;;;22.70;99.90;;;;;;5068916;28;20460;-70
2023/08/05 10:15:26;;;;;;;1999.90;999.90;;;22.70;99.40;;;;;;5069201;28;20786;-70
2023/08/05 10:17:52;;;;;;;1999.90;999.90;;;22.80;99.90;;;;;;5068155;28;20806;-71
2023/08/05 10:20:18;;;;;;;1999.90;999.90;;;23.00;99.90;;;;;;5051541;28;20894;-71
2023/08/05 10:23:01;;;;;;;1999.90;999.90;;;23.30;99.90;;;;;;5068781;28;20457;-71
2023/08/05 10:25:45;;;;;;;1999.90;999.90;;;23.50;99.90;;;;;;5068961;28;20199;-71
2023/08/05 10:28:34;;;;;;;1999.90;999.90;;;23.60;99.90;;;;;;5069803;28;20796;-71
2023/08/05 10:31:03;;;;;;;1999.90;999.90;;;23.90;99.90;;;;;;5064945;28;20421;-70
2023/08/05 10:33:29;;;;;;;1999.90;999.90;;;24.00;98.10;;;;;;5069106;28;20459;-71
2023/08/05 10:36:02;;;;;;;1999.90;999.90;;;24.00;99.70;;;;;;5068411;28;20520;-71
2023/08/05 10:38:30;;;;;;;1999.90;999.90;;;23.80;98.00;;;;;;5068175;28;20217;-71
2023/08/05 10:41:04;;;;;;;1999.90;999.90;;;23.90;97.90;;;;;;5059226;28;20440;-71
2023/08/05 10:43:33;;;;;;;1999.90;999.90;;;23.80;99.60;;;;;;5068762;28;20445;-70
2023/08/05 10:46:19;;;;;;;1999.90;999.90;;;23.70;98.40;;;;;;5071889;28;20457;-72
2023/08/05 10:48:48;;;;;;;1999.90;999.90;;;23.80;97.60;;;;;;5072704;28;20758;-72
2023/08/05 10:51:17;;;;;;;1999.90;999.90;;;23.70;98.00;;;;;;5074109;28;20511;-72
2023/08/05 10:53:44;;;;;;;1999.90;999.90;;;23.60;95.90;;;;;;5074542;28;20447;-72
2023/08/05 10:56:13;;;;;;;1999.90;999.90;;;23.50;97.20;;;;;;5057280;28;20452;-71
2023/08/05 10:58:52;;;;;;;1999.90;999.90;;;23.20;97.40;;;;;;5068933;28;20503;-71
2023/08/05 11:01:18;;;;;;;1999.90;999.90;;;22.90;97.10;;;;;;5072386;28;20403;-72
2023/08/05 11:03:49;;;;;;;1999.90;999.90;;;22.70;98.60;;;;;;5075253;28;20957;-72
2023/08/05 11:06:21;;;;;;;1999.90;999.90;;;22.60;99.90;;;;;;5074752;28;20459;-73
2023/08/05 11:08:46;;;;;;;1999.90;999.90;;;22.60;99.90;;;;;;5075711;28;20438;-71
2023/08/05 11:11:13;;;;;;;1999.90;999.90;;;22.70;99.90;;;;;;5075255;28;20461;-72
2023/08/05 11:13:41;;;;;;;1999.90;999.90;;;22.90;99.90;;;;;;5076963;28;20262;-72
2023/08/05 11:16:14;;;;;;;1999.90;999.90;;;23.00;99.90;;;;;;5074969;28;21005;-72
2023/08/05 11:18:41;;;;;;;1999.90;999.90;;;23.20;99.90;;;;;;5073651;28;20772;-72
2023/08/05 11:21:13;;;;;;;1999.90;999.90;;;23.60;99.90;;;;;;5074414;28;20410;-71
2023/08/05 11:23:41;;;;;;;1999.90;999.90;;;24.00;99.30;;;;;;5073854;28;20380;-70
2023/08/05 11:26:07;;;;;;;1999.90;999.90;;;24.20;94.20;;;;;;5074205;28;20473;-72
2023/08/05 11:28:34;;;;;;;1999.90;999.90;;;24.20;95.00;;;;;;5073870;28;20413;-71
2023/08/05 11:31:04;;;;;;;1999.90;999.90;;;24.20;96.00;;;;;;5073998;28;20460;-72
2023/08/05 11:33:30;;;;;;;1999.90;999.90;;;24.30;98.50;;;;;;5073183;28;20544;-73
2023/08/05 11:35:56;;;;;;;1999.90;999.90;;;24.90;99.90;;;;;;5072435;28;20510;-72
2023/08/05 11:38:22;;;;;;;1999.90;999.90;;;25.50;92.90;;;;;;5072929;28;20178;-72
2023/08/05 11:40:55;;;;;;;1999.90;999.90;;;25.70;81.90;;;;;;5071077;28;20408;-72
2023/08/05 11:43:22;;;;;;;1999.90;999.90;;;25.60;81.50;;;;;;5072643;28;20445;-72
2023/08/05 11:45:49;;;;;;;1999.90;999.90;;;25.40;78.50;;;;;;5071921;28;20495;-72
2023/08/05 11:48:21;;;;;;;1999.90;999.90;;;25.30;78.00;;;;;;5073211;28;20380;-72
2023/08/05 11:50:48;;;;;;;1999.90;999.90;;;25.20;77.70;;;;;;5073347;28;20413;-72
2023/08/05 11:53:14;;;;;;;1999.90;999.90;;;25.10;86.60;;;;;;5071579;28;20449;-71
2023/08/05 11:55:40;;;;;;;1999.90;999.90;;;24.90;80.10;;;;;;5073040;28;20405;-71
2023/08/05 11:58:06;;;;;;;1999.90;999.90;;;24.70;76.60;;;;;;5072775;28;21010;-71